RHI weather

Rhinelander Oneida County Airport
Rhinelander, Wisconsin, United States

Public forecast

Using degrees Fahrenheit for public forecast. Weather courtesy of forecast.io.

Current aviation weather report (METAR) for Rhinelander Oneida County Airport

Retrieved 2019/11/20 02:53 UTC (22 minutes ago):

KRHI 200253Z AUTO 24004KT 10SM OVC008 M01/M02 A2990 RMK AO2 CIG 006V011 SLP145 T10061022 53013

Aviation forecast (TAF) for Rhinelander Oneida County Airport

Retrieved 2019-11-20 00:42 UTC (3 hours ago):

TAF KRHI 192339Z 2000/2024 00000KT P6SM SCT015 OVC025 TEMPO 2000/2003 6SM BR BKN015 FM200300 VRB03KT 4SM BR OVC007 FM200800 VRB03KT 1 1/2SM BR OVC005 TEMPO 2008/2012 3/4SM BR OVC003 FM201500 19004KT 6SM BR OVC008 FM202100 17004KT P6SM OVC011